James A Rhodes (I43)

 

Airport Diagram
No Airport Diagram Available
Current Weather/Forecast (IFR Conditions)
METAR KI43 280555Z AUTO 32007KT 2 1/2SM -SN SCT008 BKN012 OVC018 M01/M02 A3030 RMK AO2
TAF

Airport Information

All Charts
General
Chart Name View
TAKEOFF MINIMUMS
TAKEOFF MINIMUMS

Approaches
Chart Name Download
RNAV (GPS) RWY 01
RNAV (GPS) RWY 19
VOR/DME-A
RNAV (GPS) RWY 01
RNAV (GPS) RWY 19
VOR/DME-A


Airport Statistics
Departures Arrivals Local
All Collected Stats since June 2016: 2 3 0
2021 Stats: 2 2 0
January Stats: 2 2 0

Inbound Traffic (Arrivals) - 0

No inbound traffic.


Outbound Traffic (Departures) - 0

No outbound traffic.


Local Traffic (Pattern) - 0

No local traffic.